Time;durP1;ratioP1;P1;durP2;ratioP2;P2;SDS_P1;SDS_P2;PMS_P1;PMS_P2;Temp;Humidity;BMP_temperature;BMP_pressure;BME280_temperature;BME280_humidity;BME280_pressure;Samples;Min_cycle;Max_cycle;Signal;HPM_P1;HPM_P2
2023/06/16 00:01:35;;;;;;;7.13;5.90;;;;;;;18.78;68.45;99685.41;4806780;29;20175;-85
2023/06/16 00:04:21;;;;;;;6.88;5.55;;;;;;;18.75;68.14;99677.91;4805310;29;20067;-86
2023/06/16 00:07:06;;;;;;;10.20;6.20;;;;;;;18.69;67.67;99680.47;4820449;29;20523;-86
2023/06/16 00:09:50;;;;;;;6.15;5.55;;;;;;;18.64;67.74;99682.97;4807502;29;20049;-88
2023/06/16 00:12:35;;;;;;;6.88;5.65;;;;;;;18.59;67.73;99674.91;4821224;29;20057;-86
2023/06/16 00:15:20;;;;;;;8.77;6.03;;;;;;;18.61;67.51;99680.78;4815876;29;20082;-85
2023/06/16 00:18:04;;;;;;;7.18;6.00;;;;;;;18.58;67.40;99680.47;4819120;29;20566;-84
2023/06/16 00:20:51;;;;;;;;;;;;;;;18.55;67.66;99674.53;4807519;29;20074;-85
2023/06/16 00:23:36;;;;;;;17.70;6.35;;;;;;;18.52;67.42;99674.22;4820834;29;20391;-86
2023/06/16 00:26:20;;;;;;;9.48;6.18;;;;;;;18.46;67.75;99675.13;4821350;29;20060;-86
2023/06/16 00:29:05;;;;;;;8.48;6.47;;;;;;;18.43;68.30;99671.09;4818153;29;20053;-85
2023/06/16 00:31:49;;;;;;;9.65;5.97;;;;;;;18.37;68.64;99680.78;4819361;29;20057;-86
2023/06/16 00:34:33;;;;;;;9.02;5.80;;;;;;;18.36;68.33;99668.53;4820115;29;20115;-86
2023/06/16 00:37:18;;;;;;;7.40;6.07;;;;;;;18.35;68.55;99674.91;4802348;29;20053;-87
2023/06/16 00:40:04;;;;;;;8.00;6.00;;;;;;;18.29;68.46;99669.69;4818993;29;20050;-86
2023/06/16 00:42:48;;;;;;;8.75;6.20;;;;;;;18.26;68.62;99670.94;4823148;29;20420;-85
2023/06/16 00:45:33;;;;;;;7.82;5.70;;;;;;;18.19;69.04;99660.47;4821680;29;20126;-84
2023/06/16 00:48:17;;;;;;;7.72;5.97;;;;;;;18.25;69.47;99666.69;4822785;29;20049;-85
2023/06/16 00:51:02;;;;;;;9.85;6.43;;;;;;;18.25;69.80;99672.00;4823600;29;20049;-84
2023/06/16 00:53:47;;;;;;;6.25;5.72;;;;;;;18.24;70.49;99657.09;4823628;29;20042;-85
2023/06/16 00:56:31;;;;;;;6.93;6.22;;;;;;;18.22;70.43;99664.47;4823503;29;20545;-84
2023/06/16 00:59:16;;;;;;;6.85;6.00;;;;;;;18.23;70.34;99664.25;4809875;29;20060;-84
2023/06/16 01:01:59;;;;;;;7.78;5.90;;;;;;;18.27;70.54;99668.06;4823748;29;20060;-85
2023/06/16 01:04:46;;;;;;;7.80;5.85;;;;;;;18.34;69.93;99656.50;4823615;29;20164;-84
2023/06/16 01:07:41;;;;;;;7.68;5.72;;;;;;;18.41;69.71;99660.69;4821686;29;20405;-84
2023/06/16 01:10:45;;;;;;;8.25;5.65;;;;;;;18.44;69.86;99667.41;4821641;29;20055;-85
2023/06/16 01:13:42;;;;;;;8.13;6.30;;;;;;;18.54;69.39;99661.50;4810204;29;20075;-85
2023/06/16 01:16:30;;;;;;;7.05;6.35;;;;;;;18.48;68.71;99652.59;4820316;29;20572;-85
2023/06/16 01:19:28;;;;;;;12.07;7.18;;;;;;;18.58;68.53;99667.97;4822874;29;20072;-86
2023/06/16 01:22:24;;;;;;;6.60;6.00;;;;;;;18.54;68.51;99654.31;4822361;29;20408;-86
2023/06/16 01:25:14;;;;;;;9.93;6.55;;;;;;;18.52;69.37;99660.94;4820019;29;20106;-87
2023/06/16 01:28:03;;;;;;;6.70;6.10;;;;;;;18.45;69.11;99649.59;4820353;29;20049;-87
2023/06/16 01:30:50;;;;;;;10.52;6.45;;;;;;;18.39;69.02;99654.78;4823496;29;20065;-87
2023/06/16 01:33:37;;;;;;;7.65;6.20;;;;;;;18.35;69.39;99648.31;4809718;29;20078;-85
2023/06/16 01:36:21;;;;;;;8.75;6.28;;;;;;;18.27;69.75;99651.31;4822934;29;20050;-84
2023/06/16 01:39:08;;;;;;;7.13;6.43;;;;;;;18.29;69.35;99659.88;4821372;29;20075;-85
2023/06/16 01:41:54;;;;;;;7.13;6.43;;;;;;;18.39;68.55;99649.47;4820092;29;20415;-85
2023/06/16 01:44:41;;;;;;;8.20;6.50;;;;;;;18.23;68.71;99650.16;4839452;29;20072;-86
2023/06/16 01:47:25;;;;;;;8.50;6.60;;;;;;;18.08;68.85;99647.97;4841162;29;20507;-86
2023/06/16 01:50:11;;;;;;;8.70;6.65;;;;;;;18.10;68.83;99645.88;4841685;29;20117;-86
2023/06/16 01:52:56;;;;;;;9.63;6.97;;;;;;;18.15;68.71;99640.69;4827121;29;20049;-84
2023/06/16 01:55:46;;;;;;;11.90;7.53;;;;;;;18.05;68.75;99643.91;4827957;29;20523;-85
2023/06/16 01:58:30;;;;;;;7.75;6.95;;;;;;;17.94;69.27;99634.84;4840665;29;20044;-85
2023/06/16 02:01:28;;;;;;;8.57;7.18;;;;;;;17.80;69.65;99641.41;4841639;29;20049;-84
2023/06/16 02:04:23;;;;;;;7.72;6.05;;;;;;;17.65;70.03;99639.16;4827045;29;20065;-85
2023/06/16 02:07:12;;;;;;;12.65;6.97;;;;;;;17.51;70.68;99620.78;4839918;29;20045;-85
2023/06/16 02:09:58;;;;;;;8.23;6.80;;;;;;;17.44;71.24;99633.31;4827042;29;20049;-85
2023/06/16 02:12:42;;;;;;;9.43;7.18;;;;;;;17.37;72.14;99632.63;4840409;29;20125;-86
2023/06/16 02:15:27;;;;;;;12.10;7.20;;;;;;;17.26;72.26;99628.88;4839959;29;20092;-87
2023/06/16 02:18:11;;;;;;;8.57;6.45;;;;;;;17.24;72.73;99629.09;4827165;29;20424;-87
2023/06/16 02:20:55;;;;;;;9.80;6.70;;;;;;;17.21;73.60;99628.75;4840248;29;20048;-86
2023/06/16 02:23:39;;;;;;;9.95;7.40;;;;;;;17.15;74.25;99635.75;4826688;29;20455;-86
2023/06/16 02:26:24;;;;;;;8.15;6.40;;;;;;;17.18;74.16;99632.66;4839282;29;20436;-85
2023/06/16 02:29:08;;;;;;;11.55;7.55;;;;;;;17.07;74.57;99628.09;4824993;29;20438;-87
2023/06/16 02:31:52;;;;;;;7.82;7.03;;;;;;;17.14;74.42;99634.13;4826899;29;20109;-87
2023/06/16 02:34:36;;;;;;;10.20;8.30;;;;;;;17.13;75.72;99632.53;4827203;29;20045;-87
2023/06/16 02:37:21;;;;;;;12.10;8.48;;;;;;;17.02;76.46;99625.28;4840277;29;20416;-87
2023/06/16 02:40:05;;;;;;;11.55;8.25;;;;;;;17.01;76.39;99613.91;4840178;29;20405;-87
2023/06/16 02:42:50;;;;;;;9.20;8.18;;;;;;;16.95;77.35;99609.44;4839745;29;20049;-86
2023/06/16 02:45:34;;;;;;;11.57;7.80;;;;;;;16.95;77.85;99614.72;4839382;29;20132;-88
2023/06/16 02:48:18;;;;;;;8.52;7.63;;;;;;;16.92;77.20;99609.88;4839432;29;20094;-87
2023/06/16 02:51:02;;;;;;;10.40;7.57;;;;;;;16.96;77.14;99614.53;4826858;29;20075;-86
2023/06/16 02:53:46;;;;;;;18.95;8.40;;;;;;;16.98;77.32;99615.13;4837795;29;20125;-85
2023/06/16 02:56:30;;;;;;;8.48;7.43;;;;;;;17.02;76.96;99601.44;4838595;29;20049;-86
2023/06/16 02:59:14;;;;;;;8.93;7.57;;;;;;;17.07;76.29;99601.56;4839124;29;20146;-86
2023/06/16 03:01:58;;;;;;;8.63;7.35;;;;;;;17.15;76.53;99603.91;4826728;29;20399;-86
2023/06/16 03:04:42;;;;;;;9.05;7.43;;;;;;;17.11;76.18;99602.75;4839739;29;20052;-86
2023/06/16 03:07:31;;;;;;;9.02;7.50;;;;;;;17.10;76.24;99601.94;4840625;29;20109;-86
2023/06/16 03:10:17;;;;;;;10.52;7.70;;;;;;;17.10;76.07;99601.94;4840338;29;20568;-87
2023/06/16 03:13:01;;;;;;;10.55;7.22;;;;;;;17.07;75.63;99596.25;4837687;29;20109;-86
2023/06/16 03:15:45;;;;;;;9.07;7.80;;;;;;;17.19;75.14;99607.75;4836708;29;20068;-87
2023/06/16 03:18:29;;;;;;;8.63;6.85;;;;;;;17.18;74.71;99598.16;4824201;29;20125;-88
2023/06/16 03:21:15;;;;;;;7.95;7.15;;;;;;;17.19;74.41;99596.31;4839064;29;20048;-87
2023/06/16 03:23:59;;;;;;;10.05;7.65;;;;;;;17.13;74.82;99596.19;4838671;29;20205;-86
2023/06/16 03:26:44;;;;;;;11.50;7.57;;;;;;;17.06;75.01;99597.28;4838921;29;20412;-87
2023/06/16 03:29:28;;;;;;;15.13;7.72;;;;;;;16.81;76.17;99603.47;4839018;29;20075;-87
2023/06/16 03:32:12;;;;;;;;;;;;;;;16.75;77.51;99597.22;4839324;29;20518;-87
2023/06/16 03:34:57;;;;;;;9.43;7.30;;;;;;;16.64;78.10;99595.31;4823089;29;19923;-88
2023/06/16 03:37:41;;;;;;;10.98;7.63;;;;;;;16.54;77.98;99596.63;4837797;29;20515;-87
2023/06/16 03:40:25;;;;;;;11.02;7.13;;;;;;;16.55;78.18;99598.25;4839598;29;20109;-85
2023/06/16 03:43:09;;;;;;;10.00;7.10;;;;;;;16.53;78.16;99602.97;4826159;29;20563;-85
2023/06/16 03:45:53;;;;;;;8.82;7.38;;;;;;;16.63;78.18;99599.00;4839624;29;20044;-85
2023/06/16 03:48:36;;;;;;;;;;;;;;;16.66;78.35;99602.00;4838156;29;20453;-86
2023/06/16 03:51:20;;;;;;;9.30;6.90;;;;;;;16.67;78.01;99598.31;4837395;29;20417;-86
2023/06/16 03:54:04;;;;;;;9.57;6.90;;;;;;;16.65;78.37;99600.38;4838699;29;20408;-86
2023/06/16 03:56:48;;;;;;;10.10;7.47;;;;;;;16.60;78.70;99604.72;4825344;29;20056;-87
2023/06/16 03:59:32;;;;;;;10.15;7.07;;;;;;;16.60;78.55;99604.72;4839007;29;20045;-86
2023/06/16 04:02:16;;;;;;;12.15;7.25;;;;;;;16.56;79.53;99591.91;4825102;29;20454;-85
2023/06/16 04:05:02;;;;;;;8.45;7.30;;;;;;;16.62;79.30;99590.22;4839461;29;20499;-85
2023/06/16 04:07:46;;;;;;;11.38;7.70;;;;;;;16.65;79.29;99587.13;4839821;29;20049;-86
2023/06/16 04:10:29;;;;;;;9.65;7.78;;;;;;;16.89;77.70;99589.91;4837707;29;20081;-87
2023/06/16 04:13:14;;;;;;;10.13;7.68;;;;;;;17.10;76.50;99587.88;4837408;29;20556;-88
2023/06/16 04:15:58;;;;;;;12.02;8.35;;;;;;;17.21;76.22;99591.63;4839555;29;20084;-86
2023/06/16 04:18:47;;;;;;;10.32;7.22;;;;;;;17.23;75.75;99585.03;4842172;29;20072;-86
2023/06/16 04:21:32;;;;;;;8.35;7.10;;;;;;;17.15;76.17;99587.19;4841765;29;20077;-86
2023/06/16 04:24:16;;;;;;;9.60;7.22;;;;;;;17.10;77.17;99586.03;4842368;29;20049;-89
2023/06/16 04:27:02;;;;;;;8.27;7.15;;;;;;;17.17;77.47;99585.94;4842577;29;20086;-88
2023/06/16 04:29:49;;;;;;;8.27;6.90;;;;;;;17.09;77.91;99579.09;4829455;29;20081;-87
2023/06/16 04:32:35;;;;;;;8.63;7.28;;;;;;;17.16;78.38;99589.63;4843363;29;20078;-88
2023/06/16 04:35:21;;;;;;;8.70;7.70;;;;;;;17.20;79.84;99590.78;4829125;29;20078;-85
2023/06/16 04:38:06;;;;;;;10.48;7.43;;;;;;;17.24;80.54;99591.94;4828769;29;20117;-84
2023/06/16 04:40:50;;;;;;;12.13;7.60;;;;;;;17.19;81.72;99589.16;4842619;29;20083;-86
2023/06/16 04:43:34;;;;;;;8.70;7.72;;;;;;;17.23;82.93;99594.84;4841389;29;20054;-84
2023/06/16 04:46:18;;;;;;;10.70;7.78;;;;;;;17.21;83.26;99586.31;4842029;29;20074;-85
2023/06/16 04:49:02;;;;;;;11.43;8.20;;;;;;;17.26;83.31;99587.22;4841764;29;20090;-85
2023/06/16 04:51:46;;;;;;;7.95;6.93;;;;;;;17.27;83.35;99590.69;4841482;29;20044;-85
2023/06/16 04:54:30;;;;;;;12.38;7.78;;;;;;;17.28;83.20;99585.16;4841009;29;20040;-85
2023/06/16 04:57:14;;;;;;;8.48;6.90;;;;;;;17.39;83.09;99590.75;4842673;29;20050;-85
2023/06/16 04:59:58;;;;;;;9.02;7.32;;;;;;;17.45;83.13;99589.03;4828417;29;20088;-86
2023/06/16 05:02:42;;;;;;;10.93;7.53;;;;;;;17.54;83.67;99580.53;4826677;29;20110;-86
2023/06/16 05:05:26;;;;;;;10.63;7.38;;;;;;;17.59;84.01;99587.00;4842536;29;20400;-87
2023/06/16 05:08:11;;;;;;;8.98;7.40;;;;;;;17.66;84.31;99593.00;4841123;29;20567;-86
2023/06/16 05:10:55;;;;;;;8.55;7.22;;;;;;;17.71;84.20;99585.19;4827631;29;20081;-85
2023/06/16 05:13:39;;;;;;;10.05;6.72;;;;;;;17.76;83.76;99582.66;4842510;29;20070;-86
2023/06/16 05:16:24;;;;;;;7.82;7.10;;;;;;;17.82;83.78;99588.91;4841634;29;20568;-87
2023/06/16 05:19:08;;;;;;;7.57;6.82;;;;;;;17.89;84.01;99583.47;4827950;29;20075;-86
2023/06/16 05:21:52;;;;;;;8.77;7.45;;;;;;;17.94;84.53;99595.00;4841327;29;20044;-86
2023/06/16 05:24:36;;;;;;;8.20;7.28;;;;;;;18.01;83.75;99594.09;4840754;29;20515;-87
2023/06/16 05:27:22;;;;;;;8.07;6.85;;;;;;;18.05;82.85;99596.09;4840267;29;20097;-86
2023/06/16 05:30:07;;;;;;;9.15;7.47;;;;;;;18.09;83.78;99589.28;4841633;29;20114;-86
2023/06/16 05:32:50;;;;;;;10.38;7.82;;;;;;;18.16;84.15;99586.50;4826099;29;20061;-86
2023/06/16 05:35:34;;;;;;;11.77;9.35;;;;;;;18.20;83.13;99592.16;4826048;29;20212;-86
2023/06/16 05:38:18;;;;;;;12.88;8.48;;;;;;;18.23;83.18;99591.69;4840019;29;20057;-86
2023/06/16 05:41:02;;;;;;;9.95;8.10;;;;;;;18.32;82.73;99590.31;4841493;29;20069;-85
2023/06/16 05:43:46;;;;;;;8.32;7.32;;;;;;;18.42;82.08;99589.75;4841335;29;20396;-86
2023/06/16 05:46:30;;;;;;;9.40;7.45;;;;;;;18.54;82.43;99589.72;4827691;29;20056;-86
2023/06/16 05:49:14;;;;;;;9.70;8.52;;;;;;;18.61;82.90;99592.25;4840690;29;20053;-86
2023/06/16 05:51:59;;;;;;;8.88;7.57;;;;;;;18.75;83.12;99592.81;4840185;29;20053;-87
2023/06/16 05:54:43;;;;;;;8.27;7.40;;;;;;;18.82;82.40;99585.50;4839803;29;20129;-85
2023/06/16 05:57:27;;;;;;;10.63;7.80;;;;;;;18.83;82.33;99581.78;4841567;29;20125;-86
2023/06/16 06:00:12;;;;;;;9.98;7.90;;;;;;;18.96;82.61;99581.53;4839785;29;20458;-86
2023/06/16 06:02:56;;;;;;;11.60;8.13;;;;;;;19.04;80.03;99584.88;4838301;29;20056;-87
2023/06/16 06:05:40;;;;;;;11.45;8.02;;;;;;;19.10;79.74;99594.59;4841716;29;20411;-86
2023/06/16 06:08:28;;;;;;;11.38;7.72;;;;;;;19.21;80.12;99580.41;4839092;29;20076;-87
2023/06/16 06:11:12;;;;;;;12.68;8.43;;;;;;;19.36;80.79;99598.53;4824669;29;20041;-86
2023/06/16 06:13:56;;;;;;;9.07;7.50;;;;;;;19.33;79.33;99598.97;4842460;29;20097;-85
2023/06/16 06:16:40;;;;;;;10.70;7.65;;;;;;;19.39;78.49;99591.91;4839932;29;20088;-85
2023/06/16 06:19:25;;;;;;;12.63;7.68;;;;;;;19.43;77.81;99587.72;4825931;29;20129;-86
2023/06/16 06:22:09;;;;;;;11.80;7.50;;;;;;;19.53;76.94;99592.41;4841421;29;20530;-86
2023/06/16 06:24:52;;;;;;;12.30;7.85;;;;;;;19.48;77.80;99600.31;4836321;29;20089;-88
2023/06/16 06:27:36;;;;;;;13.90;8.48;;;;;;;19.63;79.88;99595.25;4827072;29;20465;-83
2023/06/16 06:30:20;;;;;;;12.38;7.95;;;;;;;19.65;78.03;99597.66;4841046;29;20161;-89
2023/06/16 06:33:05;;;;;;;12.88;8.20;;;;;;;19.80;79.60;99597.91;4827501;29;20534;-86
2023/06/16 06:35:48;;;;;;;9.23;7.30;;;;;;;19.92;79.57;99613.06;4842251;29;20083;-87
2023/06/16 06:38:32;;;;;;;9.50;7.25;;;;;;;20.02;79.56;99607.88;4826757;29;20067;-89
2023/06/16 06:41:17;;;;;;;11.10;8.10;;;;;;;20.01;78.53;99597.47;4829861;29;20141;-86
2023/06/16 06:44:01;;;;;;;8.95;7.68;;;;;;;20.10;77.06;99606.66;4840459;29;20400;-87
2023/06/16 06:46:47;;;;;;;11.18;7.90;;;;;;;20.20;76.12;99601.50;4835979;29;20093;-87
2023/06/16 06:49:31;;;;;;;10.68;8.57;;;;;;;20.21;75.52;99607.63;4840795;29;20094;-88
2023/06/16 06:52:15;;;;;;;10.75;7.38;;;;;;;20.32;76.20;99601.38;4824955;29;20081;-86
2023/06/16 06:54:59;;;;;;;12.15;8.20;;;;;;;20.26;74.68;99602.38;4819577;29;20102;-87
2023/06/16 06:57:44;;;;;;;10.23;7.50;;;;;;;20.44;74.35;99605.78;4839631;29;20057;-88
2023/06/16 07:00:28;;;;;;;10.65;8.00;;;;;;;20.60;73.07;99612.94;4837546;29;20049;-88
2023/06/16 07:03:12;;;;;;;12.32;7.68;;;;;;;20.74;73.17;99616.06;4824238;29;20056;-87
2023/06/16 07:05:56;;;;;;;10.57;8.30;;;;;;;20.68;71.47;99611.72;4835499;29;20056;-87
2023/06/16 07:08:40;;;;;;;11.55;8.20;;;;;;;20.76;71.90;99618.47;4821911;29;20103;-88
2023/06/16 07:11:24;;;;;;;13.90;8.43;;;;;;;20.79;70.60;99621.47;4823500;29;20094;-86
2023/06/16 07:14:10;;;;;;;12.93;9.02;;;;;;;20.97;70.70;99622.25;4832670;29;20125;-84
2023/06/16 07:16:57;;;;;;;13.07;8.77;;;;;;;21.06;72.05;99627.94;4831150;29;20094;-82
2023/06/16 07:19:41;;;;;;;15.90;10.38;;;;;;;21.05;71.45;99626.34;4831463;29;20128;-82
2023/06/16 07:22:25;;;;;;;16.63;9.50;;;;;;;21.13;69.85;99625.88;4832800;29;20053;-85
2023/06/16 07:25:09;;;;;;;17.17;9.60;;;;;;;21.14;70.53;99621.38;4835078;29;20048;-87
2023/06/16 07:27:55;;;;;;;17.85;9.35;;;;;;;21.31;70.54;99623.94;4836132;29;20080;-88
2023/06/16 07:30:39;;;;;;;19.98;11.73;;;;;;;21.26;69.75;99628.16;4824791;29;20049;-88
2023/06/16 07:33:23;;;;;;;18.15;11.30;;;;;;;21.33;69.84;99627.16;4831257;29;20045;-85
2023/06/16 07:36:07;;;;;;;19.58;11.68;;;;;;;21.43;70.61;99629.94;4831161;29;20053;-86
2023/06/16 07:38:52;;;;;;;18.50;11.02;;;;;;;21.49;70.14;99628.94;4823745;29;20098;-88
2023/06/16 07:41:36;;;;;;;20.85;11.40;;;;;;;;;;4834334;29;20462;-88
2023/06/16 07:44:20;;;;;;;20.33;10.80;;;;;;;21.64;69.19;99627.47;4822314;29;20404;-87
2023/06/16 07:47:04;;;;;;;25.33;12.70;;;;;;;21.63;68.28;99623.19;4839496;29;20460;-84
2023/06/16 07:49:49;;;;;;;21.90;11.68;;;;;;;21.63;68.86;99625.84;4836644;29;20592;-88
2023/06/16 07:52:34;;;;;;;17.98;10.55;;;;;;;21.82;69.27;99619.09;4836883;29;20057;-87
2023/06/16 07:55:18;;;;;;;22.45;12.80;;;;;;;21.82;67.68;99624.44;4837902;29;20102;-87
2023/06/16 07:58:02;;;;;;;24.23;13.32;;;;;;;21.96;68.00;99616.81;4836887;29;20469;-86
2023/06/16 08:00:46;;;;;;;32.45;15.90;;;;;;;21.87;68.64;99615.66;4836527;29;20186;-86
2023/06/16 08:03:31;;;;;;;29.15;16.35;;;;;;;22.04;67.48;99622.72;4835611;29;20515;-86
2023/06/16 08:06:15;;;;;;;32.30;16.77;;;;;;;22.13;67.42;99625.72;4817852;29;20117;-84
2023/06/16 08:09:00;;;;;;;26.10;14.25;;;;;;;22.14;67.81;99619.31;4825754;29;20053;-84
2023/06/16 08:11:44;;;;;;;25.20;12.95;;;;;;;22.28;65.77;99625.84;4837195;29;20052;-83
2023/06/16 08:14:27;;;;;;;25.60;13.88;;;;;;;22.35;65.82;99623.72;4833243;29;20066;-82
2023/06/16 08:17:11;;;;;;;24.25;13.63;;;;;;;22.34;65.84;99630.13;4838109;29;20122;-84
2023/06/16 08:19:55;;;;;;;24.05;13.38;;;;;;;22.44;65.24;99631.28;4839724;29;20049;-83
2023/06/16 08:22:39;;;;;;;28.23;15.10;;;;;;;22.54;64.15;99624.13;4837180;29;20106;-83
2023/06/16 08:25:23;;;;;;;23.42;12.80;;;;;;;22.57;64.21;99630.81;4838807;29;20155;-84
2023/06/16 08:28:08;;;;;;;22.60;12.68;;;;;;;22.64;63.77;99620.72;4835673;29;20404;-86
2023/06/16 08:30:52;;;;;;;17.23;11.00;;;;;;;22.79;64.69;99625.31;4830750;29;20560;-86
2023/06/16 08:33:37;;;;;;;19.33;10.68;;;;;;;22.77;63.88;99622.09;4835619;29;20448;-85
2023/06/16 08:36:23;;;;;;;13.85;9.30;;;;;;;22.76;62.83;99614.31;4819156;29;20048;-85
2023/06/16 08:39:07;;;;;;;16.02;9.88;;;;;;;23.01;63.00;99618.19;4823196;29;20048;-85
2023/06/16 08:41:52;;;;;;;18.52;8.13;;;;;;;23.18;62.65;99626.78;4839201;29;20106;-84
2023/06/16 08:44:38;;;;;;;16.40;8.90;;;;;;;23.21;62.31;99628.94;4825257;29;20454;-84
2023/06/16 08:47:25;;;;;;;9.13;6.57;;;;;;;23.41;61.13;99622.06;4838943;29;20052;-85
2023/06/16 08:50:09;;;;;;;8.77;7.05;;;;;;;23.51;59.22;99615.91;4837428;29;20053;-84
2023/06/16 08:52:57;;;;;;;10.10;6.82;;;;;;;23.67;60.23;99624.75;4825348;29;20140;-84
2023/06/16 08:55:44;;;;;;;10.38;6.53;;;;;;;23.57;58.37;99614.00;4837905;29;20121;-85
2023/06/16 08:58:30;;;;;;;10.05;7.10;;;;;;;23.75;58.50;99618.84;4838413;29;20048;-84
2023/06/16 09:01:14;;;;;;;11.10;7.50;;;;;;;23.71;58.85;99616.97;4837900;29;20102;-85
2023/06/16 09:03:59;;;;;;;8.07;7.05;;;;;;;23.87;60.70;99615.09;4827519;29;20045;-85
2023/06/16 09:06:45;;;;;;;7.93;6.32;;;;;;;24.03;60.00;99608.69;4842185;29;20056;-85
2023/06/16 09:09:31;;;;;;;8.60;6.80;;;;;;;24.01;59.26;99608.13;4842346;29;20064;-84
2023/06/16 09:12:18;;;;;;;6.45;5.57;;;;;;;24.13;58.89;99607.03;4840406;29;20110;-84
2023/06/16 09:15:08;;;;;;;10.43;6.55;;;;;;;24.21;58.94;99606.50;4827848;29;20091;-84
2023/06/16 09:17:52;;;;;;;8.43;6.68;;;;;;;24.15;57.61;99597.66;4840283;29;20049;-84
2023/06/16 09:20:39;;;;;;;10.23;6.55;;;;;;;24.28;58.74;99598.97;4839935;29;20090;-85
2023/06/16 09:23:28;;;;;;;8.23;7.28;;;;;;;24.39;60.45;99602.44;4835490;29;20519;-84
2023/06/16 09:26:13;;;;;;;8.10;6.20;;;;;;;24.44;57.26;99606.97;4825994;29;20106;-84
2023/06/16 09:28:57;;;;;;;9.88;6.57;;;;;;;24.44;58.96;99606.97;4828200;29;20793;-86
2023/06/16 09:31:41;;;;;;;7.68;6.10;;;;;;;24.61;58.76;99598.59;4841576;29;20045;-84
2023/06/16 09:34:32;;;;;;;10.43;6.53;;;;;;;24.72;57.93;99592.13;4840824;29;20512;-84
2023/06/16 09:37:20;;;;;;;7.45;6.30;;;;;;;24.85;57.60;99595.28;4827151;29;20204;-85
2023/06/16 09:40:06;;;;;;;7.10;5.95;;;;;;;24.88;56.41;99590.19;4826050;29;20056;-84
2023/06/16 09:42:51;;;;;;;9.23;6.70;;;;;;;24.86;55.71;99591.53;4840944;29;20064;-85
2023/06/16 09:45:35;;;;;;;8.18;6.35;;;;;;;24.91;55.38;99588.84;4827622;29;20074;-85
2023/06/16 09:48:19;;;;;;;9.80;6.13;;;;;;;25.03;56.61;99585.81;4826694;29;20049;-84
2023/06/16 09:51:07;;;;;;;6.32;5.72;;;;;;;25.16;55.77;99584.38;4839708;29;20094;-86
2023/06/16 09:53:54;;;;;;;8.77;6.00;;;;;;;25.27;54.79;99595.88;4839547;29;20098;-85
2023/06/16 09:56:39;;;;;;;8.35;6.72;;;;;;;25.20;53.10;99596.19;4840975;29;20388;-85
2023/06/16 09:59:25;;;;;;;11.50;6.63;;;;;;;25.28;52.96;99581.34;4825973;29;20068;-84
2023/06/16 10:02:12;;;;;;;8.40;6.38;;;;;;;25.35;52.55;99576.44;4840074;29;20140;-84
2023/06/16 10:05:00;;;;;;;8.95;6.72;;;;;;;25.31;52.60;99581.59;4827623;29;20458;-85
2023/06/16 10:07:50;;;;;;;8.85;6.38;;;;;;;25.39;53.70;99581.00;4839567;29;20483;-84
2023/06/16 10:10:38;;;;;;;6.95;5.97;;;;;;;25.46;55.24;99572.63;4826893;29;20523;-85
2023/06/16 10:13:25;;;;;;;11.02;5.93;;;;;;;25.54;53.37;99573.94;4839781;29;20141;-84
2023/06/16 10:16:12;;;;;;;8.15;6.28;;;;;;;25.60;53.17;99572.00;4841568;29;20155;-85
2023/06/16 10:19:00;;;;;;;10.60;6.20;;;;;;;25.70;55.00;99576.50;4826672;29;20465;-85
2023/06/16 10:21:44;;;;;;;9.32;5.78;;;;;;;25.75;53.58;99574.56;4839956;29;20049;-84
2023/06/16 10:24:28;;;;;;;7.90;6.10;;;;;;;25.78;52.62;99571.31;4827244;29;20100;-85
2023/06/16 10:27:13;;;;;;;14.35;6.53;;;;;;;26.00;55.55;99569.22;4840234;29;20461;-85
2023/06/16 10:30:01;;;;;;;8.05;6.72;;;;;;;26.07;54.63;99567.00;4840046;29;20056;-85
2023/06/16 10:32:46;;;;;;;13.48;7.00;;;;;;;26.04;53.17;99573.75;4840839;29;20122;-84
2023/06/16 10:35:38;;;;;;;6.78;5.78;;;;;;;26.12;54.25;99566.13;4840919;29;20060;-85
2023/06/16 10:38:36;;;;;;;7.32;6.60;;;;;;;26.22;52.92;99560.69;4839679;29;20480;-85
2023/06/16 10:41:23;;;;;;;9.20;6.00;;;;;;;26.33;53.26;99567.53;4836486;29;20182;-86
2023/06/16 10:44:34;;;;;;;9.98;6.15;;;;;;;26.08;52.56;99558.63;4840726;29;20751;-86
2023/06/16 10:47:18;;;;;;;10.88;6.03;;;;;;;26.16;53.48;99561.81;4826298;29;20524;-86
2023/06/16 10:50:04;;;;;;;8.15;5.90;;;;;;;26.37;54.90;99557.00;4826107;29;20071;-85
2023/06/16 10:52:52;;;;;;;8.65;6.57;;;;;;;26.50;55.59;99555.50;4836623;29;20049;-84
2023/06/16 10:55:39;;;;;;;9.13;6.18;;;;;;;26.56;53.71;99548.97;4840350;29;20101;-85
2023/06/16 10:58:26;;;;;;;9.27;6.38;;;;;;;26.67;53.22;99549.63;4839848;29;20082;-86
2023/06/16 11:01:24;;;;;;;8.30;6.35;;;;;;;26.48;50.94;99541.53;4839217;29;20044;-85
2023/06/16 11:04:14;;;;;;;7.57;6.43;;;;;;;26.53;52.11;99549.56;4826650;29;20052;-84
2023/06/16 11:07:04;;;;;;;11.20;6.38;;;;;;;26.74;54.79;99544.69;4837886;29;20052;-84
2023/06/16 11:09:57;;;;;;;9.32;6.30;;;;;;;26.74;52.56;99533.13;4825310;29;20142;-86
2023/06/16 11:12:41;;;;;;;8.30;6.80;;;;;;;26.84;53.13;99541.06;4840755;29;20053;-86
2023/06/16 11:15:25;;;;;;;8.20;6.20;;;;;;;26.99;52.31;99539.25;4839415;29;20110;-86
2023/06/16 11:18:10;;;;;;;10.60;6.70;;;;;;;26.98;53.37;99543.06;4826097;29;20084;-85
2023/06/16 11:20:56;;;;;;;7.80;6.88;;;;;;;26.93;53.55;99539.34;4838822;29;20098;-85
2023/06/16 11:23:43;;;;;;;10.75;7.00;;;;;;;27.04;54.17;99542.69;4838400;29;20049;-85
2023/06/16 11:26:28;;;;;;;8.90;6.80;;;;;;;26.91;52.22;99538.81;4825785;29;20182;-85
2023/06/16 11:29:12;;;;;;;8.63;6.57;;;;;;;27.04;53.66;99531.09;4836520;29;20105;-86
2023/06/16 11:31:56;;;;;;;8.00;6.43;;;;;;;27.21;54.04;99528.69;4839010;29;20100;-85
2023/06/16 11:34:41;;;;;;;13.10;7.07;;;;;;;27.26;53.70;99535.06;4839118;29;20098;-85
2023/06/16 11:37:51;;;;;;;7.80;6.95;;;;;;;27.36;55.01;99537.63;4840299;29;20094;-85
2023/06/16 11:40:35;;;;;;;7.90;6.45;;;;;;;27.49;53.87;99534.13;4839641;29;20058;-85
2023/06/16 11:43:23;;;;;;;7.65;6.95;;;;;;;27.56;52.02;99533.00;4838825;29;20081;-85
2023/06/16 11:46:07;;;;;;;8.13;6.90;;;;;;;27.53;52.08;99531.69;4825538;29;20045;-85
2023/06/16 11:48:52;;;;;;;7.10;6.10;;;;;;;27.56;51.71;99536.47;4838333;29;20053;-84
2023/06/16 11:51:36;;;;;;;6.88;5.88;;;;;;;27.64;50.87;99522.34;4839859;29;20041;-85
2023/06/16 11:54:21;;;;;;;7.47;6.47;;;;;;;27.56;50.96;99525.69;4839999;29;20053;-85
2023/06/16 11:57:05;;;;;;;8.82;7.13;;;;;;;27.62;51.13;99529.13;4825644;29;20118;-85
2023/06/16 11:59:50;;;;;;;8.45;6.57;;;;;;;27.91;51.12;99509.19;4825962;29;20133;-85
2023/06/16 12:02:34;;;;;;;8.65;6.90;;;;;;;28.08;51.54;99520.16;4825484;29;20083;-85
2023/06/16 12:05:23;;;;;;;9.20;7.40;;;;;;;28.19;50.09;99515.38;4837981;29;20053;-86
2023/06/16 12:08:07;;;;;;;10.60;6.78;;;;;;;28.16;49.43;99505.19;4826036;29;20126;-85
2023/06/16 12:10:54;;;;;;;9.20;7.43;;;;;;;28.17;50.74;99511.41;4837303;29;20053;-85
2023/06/16 12:13:40;;;;;;;8.57;6.68;;;;;;;28.48;50.43;99503.44;4837867;29;20404;-85
2023/06/16 12:16:26;;;;;;;9.32;6.93;;;;;;;28.51;48.55;99510.16;4838551;29;20569;-85
2023/06/16 12:19:10;;;;;;;7.20;6.40;;;;;;;28.67;50.33;99497.09;4825043;29;20133;-86
2023/06/16 12:22:01;;;;;;;8.25;6.57;;;;;;;28.74;48.65;99499.38;4831259;29;20048;-85
2023/06/16 12:24:47;;;;;;;7.85;7.05;;;;;;;28.56;46.82;99501.94;4819036;29;20129;-84
2023/06/16 12:27:33;;;;;;;7.68;6.93;;;;;;;28.75;48.45;99495.59;4836550;29;20483;-84
2023/06/16 12:30:18;;;;;;;9.15;6.82;;;;;;;29.00;49.44;99493.41;4837136;29;20049;-83
2023/06/16 12:33:10;;;;;;;7.18;6.35;;;;;;;28.85;47.96;99489.97;4835564;29;20102;-84
2023/06/16 12:35:54;;;;;;;7.72;6.93;;;;;;;29.10;49.16;99493.19;4834866;29;20554;-84
2023/06/16 12:38:40;;;;;;;8.30;6.13;;;;;;;29.28;46.98;99485.16;4838180;29;20154;-84
2023/06/16 12:41:26;;;;;;;6.78;6.07;;;;;;;29.40;48.33;99496.19;4828777;29;20053;-84
2023/06/16 12:44:11;;;;;;;8.18;5.85;;;;;;;29.24;47.28;99489.59;4841951;29;20504;-88
2023/06/16 12:46:55;;;;;;;9.13;6.75;;;;;;;29.39;47.25;99486.50;4826889;29;20376;-81
2023/06/16 12:49:39;;;;;;;7.30;6.50;;;;;;;29.33;47.59;99487.75;4838568;29;20077;-77
2023/06/16 12:52:25;;;;;;;7.78;6.93;;;;;;;29.42;47.28;99483.19;4822508;29;20064;-77
2023/06/16 12:55:09;;;;;;;9.65;6.55;;;;;;;29.53;45.57;99478.31;4828875;29;20117;-77
2023/06/16 12:57:53;;;;;;;6.65;5.85;;;;;;;29.69;45.87;99476.00;4820526;29;20045;-76